createdAt,value
2019-04-29T00:00:31.277Z,6.27
2019-04-29T00:01:31.266Z,6.30
2019-04-29T00:02:31.298Z,6.24
2019-04-29T00:03:31.255Z,6.36
2019-04-29T00:04:31.233Z,6.42
2019-04-29T00:05:31.223Z,6.38
2019-04-29T00:06:31.213Z,6.38
2019-04-29T00:07:31.210Z,6.53
2019-04-29T00:08:31.231Z,6.51
2019-04-29T00:09:31.185Z,6.53
2019-04-29T00:10:31.169Z,6.55
2019-04-29T00:11:31.158Z,6.54
2019-04-29T00:12:31.149Z,6.53
2019-04-29T00:13:31.148Z,6.42
2019-04-29T00:14:31.154Z,6.54
2019-04-29T00:15:31.117Z,6.54
2019-04-29T00:16:31.108Z,6.54
2019-04-29T00:17:31.096Z,6.57
2019-04-29T00:18:31.093Z,6.64
2019-04-29T00:19:31.093Z,6.57
2019-04-29T00:20:31.064Z,6.63
2019-04-29T00:21:31.052Z,6.61
2019-04-29T00:22:31.043Z,6.69
2019-04-29T00:23:31.046Z,6.72
2019-04-29T00:24:31.020Z,6.71
2019-04-29T00:25:31.034Z,6.68
2019-04-29T00:26:30.999Z,6.79
2019-04-29T00:27:30.990Z,6.75
2019-04-29T00:28:30.999Z,6.75
2019-04-29T00:29:30.969Z,6.79
2019-04-29T00:30:30.967Z,6.79
2019-04-29T00:31:30.981Z,6.76
2019-04-29T00:32:30.935Z,6.73
2019-04-29T00:33:30.938Z,6.81
2019-04-29T00:34:30.926Z,6.83
2019-04-29T00:35:30.905Z,6.81
2019-04-29T00:36:30.895Z,6.81
2019-04-29T00:37:30.894Z,6.79
2019-04-29T00:38:30.885Z,6.79
2019-04-29T00:39:30.865Z,6.72
2019-04-29T00:40:30.853Z,6.79
2019-04-29T00:41:30.841Z,6.73
2019-04-29T00:42:30.833Z,6.75
2019-04-29T00:43:30.840Z,6.82
2019-04-29T00:44:30.829Z,6.76
2019-04-29T00:45:30.798Z,6.73
2019-04-29T00:46:30.789Z,6.79
2019-04-29T00:47:30.782Z,6.73
2019-04-29T00:48:30.781Z,6.64
2019-04-29T00:49:30.754Z,6.73
2019-04-29T00:50:30.783Z,6.69
2019-04-29T00:51:30.734Z,6.54
2019-04-29T00:52:30.721Z,6.58
2019-04-29T00:53:30.723Z,6.51
2019-04-29T00:54:30.709Z,6.36
2019-04-29T00:55:30.696Z,6.13
2019-04-29T00:56:30.721Z,6.01
2019-04-29T00:57:30.669Z,5.93
2019-04-29T00:58:30.808Z,5.78
2019-04-29T00:59:30.648Z,5.73
2019-04-29T01:00:30.642Z,5.59
2019-04-29T01:01:30.626Z,5.59
2019-04-29T01:02:30.647Z,5.37
2019-04-29T01:03:30.605Z,5.37
2019-04-29T01:04:30.601Z,5.41
2019-04-29T01:05:30.582Z,5.32
2019-04-29T01:06:30.571Z,5.37
2019-04-29T01:07:30.564Z,5.37
2019-04-29T01:08:30.579Z,5.38
2019-04-29T01:09:30.554Z,5.33
2019-04-29T01:10:30.527Z,5.32
2019-04-29T01:11:30.520Z,5.29
2019-04-29T01:12:30.507Z,5.33
2019-04-29T01:13:30.497Z,5.30
2019-04-29T01:14:30.527Z,5.26
2019-04-29T01:15:30.477Z,5.12
2019-04-29T01:16:30.465Z,5.15
2019-04-29T01:17:30.453Z,5.24
2019-04-29T01:18:30.442Z,5.24
2019-04-29T01:19:30.443Z,5.12
2019-04-29T01:20:30.453Z,5.20
2019-04-29T01:21:30.410Z,5.17
2019-04-29T01:22:30.399Z,5.24
2019-04-29T01:23:30.389Z,5.20
2019-04-29T01:24:30.393Z,5.09
2019-04-29T01:25:30.367Z,5.08
2019-04-29T01:26:30.416Z,5.08
2019-04-29T01:27:30.347Z,5.15
2019-04-29T01:28:30.336Z,5.15
2019-04-29T01:29:30.336Z,5.15
2019-04-29T01:30:30.317Z,5.20
2019-04-29T01:31:30.304Z,5.12
2019-04-29T01:32:30.337Z,5.09
2019-04-29T01:33:30.325Z,5.14
2019-04-29T01:34:30.281Z,5.14
2019-04-29T01:35:30.315Z,5.14
2019-04-29T01:36:30.249Z,5.19
2019-04-29T01:37:30.239Z,5.17
2019-04-29T01:38:30.261Z,5.09
2019-04-29T01:39:30.227Z,5.12
2019-04-29T01:40:30.207Z,5.24
2019-04-29T01:41:30.201Z,5.29
2019-04-29T01:42:30.184Z,5.26
2019-04-29T01:43:30.176Z,5.19
2019-04-29T01:44:30.187Z,5.26
2019-04-29T01:45:30.155Z,5.23
2019-04-29T01:46:30.158Z,5.06
2019-04-29T01:47:30.132Z,5.11
2019-04-29T01:48:30.120Z,4.99
2019-04-29T01:49:30.123Z,4.97
2019-04-29T01:50:30.127Z,5.04
2019-04-29T01:51:30.097Z,4.99
2019-04-29T01:52:30.078Z,5.08
2019-04-29T01:53:30.077Z,5.17
2019-04-29T01:54:30.153Z,5.17
2019-04-29T01:55:30.047Z,5.14
2019-04-29T01:56:30.058Z,5.11
2019-04-29T01:57:30.027Z,5.14
2019-04-29T01:58:30.015Z,4.97
2019-04-29T01:59:30.002Z,5.06
2019-04-29T02:00:30.009Z,5.01
2019-04-29T02:01:30.064Z,5.09
2019-04-29T02:02:29.994Z,5.01
2019-04-29T02:03:29.966Z,4.93
2019-04-29T02:04:29.953Z,4.93
2019-04-29T02:05:29.949Z,4.90
2019-04-29T02:06:29.928Z,5.04
2019-04-29T02:07:29.917Z,5.02
2019-04-29T02:08:29.930Z,5.15
2019-04-29T02:09:29.898Z,5.12
2019-04-29T02:10:29.897Z,5.23
2019-04-29T02:11:29.875Z,5.22
2019-04-29T02:12:29.864Z,5.29
2019-04-29T02:13:29.858Z,5.20
2019-04-29T02:14:29.856Z,5.19
2019-04-29T02:15:29.842Z,5.22
2019-04-29T02:16:29.822Z,5.26
2019-04-29T02:17:29.810Z,5.05
2019-04-29T02:18:29.800Z,5.14
2019-04-29T02:19:29.792Z,4.96
2019-04-29T02:20:29.836Z,4.84
2019-04-29T02:21:29.772Z,4.90
2019-04-29T02:22:29.757Z,4.72
2019-04-29T02:23:29.745Z,4.65
2019-04-29T02:24:29.737Z,4.62
2019-04-29T02:25:29.734Z,4.67
2019-04-29T02:26:29.735Z,4.62
2019-04-29T02:27:29.707Z,4.53
2019-04-29T02:28:29.695Z,4.46
2019-04-29T02:29:29.740Z,4.44
2019-04-29T02:30:29.683Z,4.46
2019-04-29T02:31:29.662Z,4.35
2019-04-29T02:32:29.686Z,4.34
2019-04-29T02:33:29.639Z,4.38
2019-04-29T02:34:29.629Z,4.46
2019-04-29T02:35:29.634Z,4.54
2019-04-29T02:36:30.197Z,4.59
2019-04-29T02:37:29.600Z,4.69
2019-04-29T02:38:29.614Z,4.68
2019-04-29T02:39:29.575Z,4.80
2019-04-29T02:40:29.577Z,4.75
2019-04-29T02:41:29.555Z,4.75
2019-04-29T02:42:29.542Z,4.86
2019-04-29T02:43:29.531Z,4.87
2019-04-29T02:44:29.544Z,4.90
2019-04-29T02:45:29.527Z,4.84
2019-04-29T02:46:29.500Z,4.90
2019-04-29T02:47:29.497Z,4.90
2019-04-29T02:48:34.275Z,4.91
2019-04-29T02:49:30.468Z,4.93
2019-04-29T02:50:29.490Z,4.94
2019-04-29T02:51:29.454Z,4.99
2019-04-29T02:52:29.436Z,4.99
2019-04-29T02:53:29.423Z,5.01
2019-04-29T02:54:29.413Z,4.96
2019-04-29T02:55:29.413Z,4.88
2019-04-29T02:56:29.417Z,4.79
2019-04-29T02:57:29.395Z,4.80
2019-04-29T02:58:29.370Z,4.64
2019-04-29T02:59:29.357Z,4.67
2019-04-29T03:00:29.361Z,4.62
2019-04-29T03:01:29.346Z,4.49
2019-04-29T03:02:29.367Z,4.34
2019-04-29T03:03:29.319Z,4.36
2019-04-29T03:04:29.308Z,4.35
2019-04-29T03:05:29.468Z,4.31
2019-04-29T03:06:29.283Z,4.38
2019-04-29T03:07:29.344Z,4.47
2019-04-29T03:08:29.305Z,4.44
2019-04-29T03:09:29.251Z,4.64
2019-04-29T03:10:29.241Z,4.54
2019-04-29T03:11:29.241Z,4.64
2019-04-29T03:12:29.218Z,4.62
2019-04-29T03:13:29.228Z,4.67
2019-04-29T03:14:29.222Z,4.59
2019-04-29T03:15:29.194Z,4.54
2019-04-29T03:16:29.184Z,4.59
2019-04-29T03:17:29.165Z,4.65
2019-04-29T03:18:29.155Z,4.51
2019-04-29T03:19:29.147Z,4.56
2019-04-29T03:20:29.161Z,4.46
2019-04-29T03:21:29.132Z,4.56
2019-04-29T03:22:29.112Z,4.51
2019-04-29T03:23:29.102Z,4.47
2019-04-29T03:24:29.101Z,4.32
2019-04-29T03:25:29.106Z,4.42
2019-04-29T03:26:29.122Z,4.36
2019-04-29T03:27:29.059Z,4.38
2019-04-29T03:28:29.047Z,4.34
2019-04-29T03:29:29.074Z,4.26
2019-04-29T03:30:29.028Z,4.24
2019-04-29T03:31:29.033Z,4.28
2019-04-29T03:32:29.018Z,4.31
2019-04-29T03:33:29.040Z,4.34
2019-04-29T03:34:28.984Z,4.35
2019-04-29T03:35:28.972Z,4.35
2019-04-29T03:36:28.972Z,4.31
2019-04-29T03:37:28.951Z,4.29
2019-04-29T03:38:28.967Z,4.26
2019-04-29T03:39:28.929Z,4.20
2019-04-29T03:40:28.917Z,4.16
2019-04-29T03:41:28.922Z,4.11
2019-04-29T03:42:28.897Z,4.16
2019-04-29T03:43:28.888Z,4.14
2019-04-29T03:44:28.885Z,4.16
2019-04-29T03:45:28.895Z,4.20
2019-04-29T03:46:28.865Z,4.16
2019-04-29T03:47:28.852Z,4.21
2019-04-29T03:48:28.834Z,4.28
2019-04-29T03:49:28.829Z,4.20
2019-04-29T03:50:28.811Z,4.18
2019-04-29T03:51:28.840Z,4.18
2019-04-29T03:52:28.789Z,4.21
2019-04-29T03:53:28.915Z,4.16
2019-04-29T03:54:28.768Z,4.20
2019-04-29T03:55:38.830Z,4.20
2019-04-29T03:56:29.789Z,4.11
2019-04-29T03:57:28.782Z,4.35
2019-04-29T03:58:28.735Z,4.35
2019-04-29T03:59:28.722Z,4.43
2019-04-29T04:00:28.705Z,4.47
2019-04-29T04:01:28.701Z,4.44
2019-04-29T04:02:28.691Z,4.46
2019-04-29T04:03:28.715Z,4.46
2019-04-29T04:04:28.658Z,4.34
2019-04-29T04:05:28.649Z,4.25
2019-04-29T04:06:28.648Z,4.26
2019-04-29T04:07:28.645Z,4.25
2019-04-29T04:08:28.616Z,4.26
2019-04-29T04:09:28.629Z,4.26
2019-04-29T04:10:28.595Z,4.24
2019-04-29T04:11:28.614Z,4.25
2019-04-29T04:12:28.626Z,4.29
2019-04-29T04:13:28.568Z,4.29
2019-04-29T04:14:28.553Z,4.32
2019-04-29T04:15:28.563Z,4.36
2019-04-29T04:16:28.558Z,4.39
2019-04-29T04:17:28.522Z,4.36
2019-04-29T04:18:28.534Z,4.46
2019-04-29T04:19:28.504Z,4.51
2019-04-29T04:20:28.491Z,4.47
2019-04-29T04:21:28.496Z,4.46
2019-04-29T04:22:28.483Z,4.49
2019-04-29T04:23:28.597Z,4.50
2019-04-29T04:24:28.442Z,4.42
2019-04-29T04:25:28.431Z,4.54
2019-04-29T04:26:28.422Z,4.57
2019-04-29T04:27:28.467Z,4.59
2019-04-29T04:28:28.418Z,4.68
2019-04-29T04:29:28.391Z,4.65
2019-04-29T04:30:28.383Z,4.64
2019-04-29T04:31:28.371Z,4.62
2019-04-29T04:32:28.370Z,4.65
2019-04-29T04:33:28.381Z,4.65
2019-04-29T04:34:28.367Z,4.69
2019-04-29T04:35:28.327Z,4.72
2019-04-29T04:36:28.316Z,4.77
2019-04-29T04:37:28.314Z,4.77
2019-04-29T04:38:28.295Z,4.84
2019-04-29T04:39:28.283Z,4.94
2019-04-29T04:40:28.323Z,5.02
2019-04-29T04:41:28.274Z,4.97
2019-04-29T04:42:30.146Z,5.04
2019-04-29T04:43:28.241Z,5.01
2019-04-29T04:44:28.230Z,4.93
2019-04-29T04:45:28.217Z,4.88
2019-04-29T04:46:28.231Z,4.86
2019-04-29T04:47:28.211Z,4.87
2019-04-29T04:48:28.187Z,4.79
2019-04-29T04:49:28.181Z,4.83
2019-04-29T04:50:28.165Z,4.75
2019-04-29T04:51:28.154Z,4.71
2019-04-29T04:52:28.210Z,4.68
2019-04-29T04:53:28.132Z,4.68
2019-04-29T04:54:31.345Z,4.62
2019-04-29T04:55:28.114Z,4.72
2019-04-29T04:56:28.101Z,4.75
2019-04-29T04:57:28.143Z,4.80
2019-04-29T04:58:28.078Z,4.86
2019-04-29T04:59:28.066Z,4.84
2019-04-29T05:00:28.056Z,4.80
2019-04-29T05:01:28.048Z,4.88
2019-04-29T05:02:28.050Z,4.88
2019-04-29T05:03:28.062Z,4.90
2019-04-29T05:04:28.013Z,4.93
2019-04-29T05:05:28.002Z,4.90
2019-04-29T05:06:27.995Z,4.99
2019-04-29T05:07:27.993Z,5.06
2019-04-29T05:08:27.970Z,5.11
2019-04-29T05:09:27.994Z,5.15
2019-04-29T05:10:27.961Z,5.22
2019-04-29T05:11:27.938Z,5.38
2019-04-29T05:12:27.937Z,5.30
2019-04-29T05:13:28.753Z,5.38
2019-04-29T05:14:27.907Z,5.33
2019-04-29T05:15:27.928Z,5.48
2019-04-29T05:16:27.888Z,5.48
2019-04-29T05:17:27.888Z,5.51
2019-04-29T05:18:27.868Z,5.56
2019-04-29T05:19:27.852Z,5.49
2019-04-29T05:20:27.845Z,5.44
2019-04-29T05:21:27.880Z,5.48
2019-04-29T05:22:27.837Z,5.59
2019-04-29T05:23:27.809Z,5.59
2019-04-29T05:24:27.799Z,5.63
2019-04-29T05:25:27.787Z,5.70
2019-04-29T05:26:27.785Z,5.62
2019-04-29T05:27:27.779Z,5.73
2019-04-29T05:28:27.808Z,5.81
2019-04-29T05:29:28.738Z,5.80
2019-04-29T05:30:27.754Z,5.77
2019-04-29T05:31:27.724Z,5.74
2019-04-29T05:32:27.713Z,5.67
2019-04-29T05:33:27.714Z,5.60
2019-04-29T05:34:27.698Z,5.56
2019-04-29T05:35:27.680Z,5.58
2019-04-29T05:36:27.677Z,5.59
2019-04-29T05:37:27.661Z,5.63
2019-04-29T05:38:27.658Z,5.70
2019-04-29T05:39:27.638Z,5.78
2019-04-29T05:40:27.631Z,5.77
2019-04-29T05:41:30.197Z,5.78
2019-04-29T05:42:28.608Z,5.85
2019-04-29T05:43:32.186Z,5.87
2019-04-29T05:44:28.588Z,5.96
2019-04-29T05:45:27.574Z,5.90
2019-04-29T05:46:27.564Z,5.92
2019-04-29T05:47:27.568Z,5.88
2019-04-29T05:48:31.670Z,5.92
2019-04-29T05:49:27.533Z,6.01
2019-04-29T05:50:27.520Z,5.96
2019-04-29T05:51:28.540Z,6.01
2019-04-29T05:52:30.063Z,6.17
2019-04-29T05:53:27.532Z,6.35
2019-04-29T05:54:31.799Z,6.53
2019-04-29T05:55:28.467Z,6.61
2019-04-29T05:56:27.471Z,6.69
2019-04-29T05:57:27.447Z,6.82
2019-04-29T05:58:27.444Z,6.96
2019-04-29T05:59:27.472Z,6.94
2019-04-29T06:00:27.426Z,6.94
2019-04-29T06:01:27.403Z,7.00
2019-04-29T06:02:33.568Z,6.97
2019-04-29T06:03:28.395Z,6.94
2019-04-29T06:04:28.769Z,6.93
2019-04-29T06:05:27.394Z,7.33
2019-04-29T06:06:27.407Z,7.82
2019-04-29T06:07:27.339Z,8.32
2019-04-29T06:08:27.335Z,8.80
2019-04-29T06:09:27.313Z,9.12
2019-04-29T06:10:27.302Z,9.56
2019-04-29T06:11:27.293Z,9.37
2019-04-29T06:12:27.294Z,9.55
2019-04-29T06:13:27.311Z,9.16
2019-04-29T06:14:27.267Z,9.35
2019-04-29T06:15:27.268Z,9.75
2019-04-29T06:16:27.238Z,10.09
2019-04-29T06:17:27.231Z,10.13
2019-04-29T06:18:27.228Z,9.48
2019-04-29T06:19:27.231Z,8.88
2019-04-29T06:20:27.252Z,8.71
2019-04-29T06:21:27.189Z,8.36
2019-04-29T06:22:27.176Z,8.32
2019-04-29T06:23:27.162Z,8.24
2019-04-29T06:24:27.162Z,8.28
2019-04-29T06:25:27.154Z,8.73
2019-04-29T06:26:27.170Z,8.89
2019-04-29T06:27:27.128Z,9.15
2019-04-29T06:28:28.205Z,9.35
2019-04-29T06:29:27.111Z,9.91
2019-04-29T06:30:27.086Z,10.26
2019-04-29T06:31:27.077Z,11.08
2019-04-29T06:32:27.090Z,11.41
2019-04-29T06:33:29.142Z,11.98
2019-04-29T06:34:27.056Z,12.51
2019-04-29T06:35:27.035Z,12.52
2019-04-29T06:36:27.025Z,12.77
2019-04-29T06:37:27.012Z,13.29
2019-04-29T06:38:27.030Z,13.91
2019-04-29T06:39:26.998Z,14.35
2019-04-29T06:40:30.631Z,13.72
2019-04-29T06:41:27.967Z,12.89
2019-04-29T06:42:26.961Z,13.24
2019-04-29T06:43:28.736Z,13.28
2019-04-29T06:44:26.990Z,12.95
2019-04-29T06:45:26.926Z,13.50
2019-04-29T06:46:26.921Z,13.75
2019-04-29T06:47:26.912Z,14.16
2019-04-29T06:48:26.896Z,14.79
2019-04-29T06:49:26.900Z,15.03
2019-04-29T06:50:26.883Z,15.27
2019-04-29T06:51:26.886Z,14.86
2019-04-29T06:52:26.852Z,14.94
2019-04-29T06:53:26.839Z,15.23
2019-04-29T06:54:26.838Z,14.82
2019-04-29T06:55:26.823Z,14.21
2019-04-29T06:56:26.822Z,14.63
2019-04-29T06:57:26.800Z,14.66
2019-04-29T06:58:26.788Z,14.66
2019-04-29T06:59:26.893Z,15.35
2019-04-29T07:00:26.771Z,16.08
2019-04-29T07:01:26.758Z,15.05
2019-04-29T07:02:26.737Z,14.61
2019-04-29T07:03:26.781Z,15.15
2019-04-29T07:04:26.807Z,14.63
2019-04-29T07:05:26.710Z,15.11
2019-04-29T07:06:26.734Z,15.71
2019-04-29T07:07:26.684Z,15.12
2019-04-29T07:08:26.677Z,15.27
2019-04-29T07:09:26.674Z,15.13
2019-04-29T07:10:27.205Z,14.69
2019-04-29T07:11:26.652Z,14.45
2019-04-29T07:12:26.639Z,14.75
2019-04-29T07:13:26.630Z,15.92
2019-04-29T07:14:28.280Z,16.81
2019-04-29T07:15:27.604Z,17.17
2019-04-29T07:16:29.241Z,17.42
2019-04-29T07:17:27.594Z,17.66
2019-04-29T07:18:26.571Z,16.88
2019-04-29T07:19:28.214Z,17.06
2019-04-29T07:20:26.544Z,17.39
2019-04-29T07:21:26.537Z,16.92
2019-04-29T07:22:27.534Z,16.30
2019-04-29T07:23:26.532Z,15.92
2019-04-29T07:24:26.513Z,15.96
2019-04-29T07:25:28.807Z,14.83
2019-04-29T07:26:26.511Z,15.58
2019-04-29T07:27:26.471Z,16.44
2019-04-29T07:28:26.480Z,16.32
2019-04-29T07:29:30.741Z,15.92
2019-04-29T07:30:29.308Z,16.82
2019-04-29T07:31:28.369Z,17.00
2019-04-29T07:32:27.414Z,17.30
2019-04-29T07:33:26.518Z,17.76
2019-04-29T07:34:29.046Z,17.96
2019-04-29T07:35:27.409Z,17.02
2019-04-29T07:36:26.369Z,16.11
2019-04-29T07:37:29.834Z,14.52
2019-04-29T07:38:40.143Z,12.98
2019-04-29T07:39:31.779Z,12.15
2019-04-29T07:40:27.406Z,13.06
2019-04-29T07:41:26.350Z,14.24
2019-04-29T07:42:32.285Z,15.43
2019-04-29T07:43:27.296Z,16.30
2019-04-29T07:44:32.771Z,15.86
2019-04-29T07:45:28.151Z,13.96
2019-04-29T07:46:26.257Z,13.44
2019-04-29T07:47:29.524Z,13.09
2019-04-29T07:48:26.255Z,12.55
2019-04-29T07:49:26.245Z,12.25
2019-04-29T07:50:28.360Z,11.78
2019-04-29T07:51:26.318Z,11.70
2019-04-29T07:52:26.213Z,13.36
2019-04-29T07:53:35.013Z,14.82
2019-04-29T07:54:27.228Z,15.51
2019-04-29T07:55:30.658Z,15.99
2019-04-29T07:56:27.146Z,15.04
2019-04-29T07:57:26.141Z,15.22
2019-04-29T07:58:27.437Z,15.30
2019-04-29T07:59:26.118Z,16.48
2019-04-29T08:00:26.116Z,17.27
2019-04-29T08:01:26.422Z,18.13
2019-04-29T08:02:26.089Z,17.27
2019-04-29T08:03:26.111Z,17.68
2019-04-29T08:04:26.065Z,17.92
2019-04-29T08:05:26.121Z,17.35
2019-04-29T08:06:26.051Z,16.33
2019-04-29T08:07:26.054Z,15.43
2019-04-29T08:08:26.019Z,14.63
2019-04-29T08:09:26.020Z,14.57
2019-04-29T08:10:28.678Z,14.60
2019-04-29T08:11:25.987Z,15.41
2019-04-29T08:12:26.004Z,15.40
2019-04-29T08:13:25.975Z,15.89
2019-04-29T08:14:25.978Z,16.88
2019-04-29T08:15:26.007Z,17.49
2019-04-29T08:16:25.958Z,17.74
2019-04-29T08:17:25.921Z,16.77
2019-04-29T08:18:25.914Z,16.32
2019-04-29T08:19:29.461Z,16.06
2019-04-29T08:20:26.908Z,15.53
2019-04-29T08:21:25.889Z,16.01
2019-04-29T08:22:27.656Z,16.62
2019-04-29T08:23:25.857Z,17.28
2019-04-29T08:24:25.875Z,16.98
2019-04-29T08:25:27.072Z,16.88
2019-04-29T08:26:25.869Z,16.65
2019-04-29T08:27:39.075Z,16.04
2019-04-29T08:28:26.801Z,16.69
2019-04-29T08:29:25.841Z,17.00
2019-04-29T08:30:25.813Z,17.32
2019-04-29T08:31:25.786Z,17.99
2019-04-29T08:32:25.777Z,17.96
2019-04-29T08:33:25.742Z,16.37
2019-04-29T08:34:25.731Z,16.59
2019-04-29T08:35:25.737Z,16.65
2019-04-29T08:36:25.720Z,15.81
2019-04-29T08:37:25.795Z,15.73
2019-04-29T08:38:25.699Z,16.78
2019-04-29T08:39:29.354Z,16.84
2019-04-29T08:40:26.690Z,17.02
2019-04-29T08:41:28.841Z,17.96
2019-04-29T08:42:25.677Z,18.83
2019-04-29T08:43:25.639Z,19.60
2019-04-29T08:44:25.647Z,20.10
2019-04-29T08:45:25.632Z,20.68
2019-04-29T08:46:25.629Z,20.17
2019-04-29T08:47:30.409Z,20.16
2019-04-29T08:48:26.579Z,19.97
2019-04-29T08:49:25.588Z,19.90
2019-04-29T08:50:25.575Z,20.34
2019-04-29T08:51:25.575Z,20.97
2019-04-29T08:52:25.590Z,21.05
2019-04-29T08:53:25.524Z,20.16
2019-04-29T08:54:25.547Z,19.31
2019-04-29T08:55:26.524Z,18.13
2019-04-29T08:56:26.619Z,16.78
2019-04-29T08:57:25.488Z,15.95
2019-04-29T08:58:25.496Z,15.76
2019-04-29T08:59:25.820Z,15.59
2019-04-29T09:00:25.450Z,15.49
2019-04-29T09:01:29.165Z,16.34
2019-04-29T09:02:34.562Z,17.74
2019-04-29T09:03:39.585Z,18.64
2019-04-29T09:04:28.495Z,19.31
2019-04-29T09:05:26.446Z,19.86
2019-04-29T09:06:27.819Z,19.75
2019-04-29T09:07:26.447Z,19.40
2019-04-29T09:08:28.776Z,19.28
2019-04-29T09:09:29.273Z,19.47
2019-04-29T09:10:25.344Z,19.46
2019-04-29T09:11:25.347Z,19.78
2019-04-29T09:12:29.394Z,19.49
2019-04-29T09:13:25.319Z,19.42
2019-04-29T09:14:25.304Z,19.23
2019-04-29T09:15:25.283Z,19.12
2019-04-29T09:16:25.282Z,18.91
2019-04-29T09:17:25.259Z,19.21
2019-04-29T09:18:25.253Z,19.58
2019-04-29T09:19:25.244Z,19.83
2019-04-29T09:20:25.224Z,19.07
2019-04-29T09:21:25.235Z,18.79
2019-04-29T09:22:25.207Z,18.99
2019-04-29T09:23:25.211Z,19.02
2019-04-29T09:24:25.183Z,18.87
2019-04-29T09:25:26.216Z,18.23
2019-04-29T09:26:25.172Z,17.71
2019-04-29T09:27:25.148Z,17.74
2019-04-29T09:28:28.116Z,18.64
2019-04-29T09:29:25.166Z,19.16
2019-04-29T09:30:25.136Z,19.67
2019-04-29T09:31:25.121Z,19.38
2019-04-29T09:32:25.110Z,18.82
2019-04-29T09:33:25.103Z,19.27
2019-04-29T09:34:26.468Z,19.07
2019-04-29T09:35:25.072Z,19.71
2019-04-29T09:36:25.105Z,20.01
2019-04-29T09:37:25.043Z,20.22
2019-04-29T09:38:25.041Z,20.57
2019-04-29T09:39:25.039Z,20.75
2019-04-29T09:40:25.008Z,21.27
2019-04-29T09:41:25.006Z,20.96
2019-04-29T09:42:25.007Z,20.26
2019-04-29T09:43:25.896Z,19.87
2019-04-29T09:44:24.966Z,19.20
2019-04-29T09:45:24.966Z,19.06
2019-04-29T09:46:24.961Z,18.31
2019-04-29T09:47:24.943Z,18.51
2019-04-29T09:48:24.920Z,19.45
2019-04-29T09:49:24.941Z,19.61
2019-04-29T09:50:24.916Z,19.76
2019-04-29T09:51:27.907Z,20.10
2019-04-29T09:52:24.886Z,20.20
2019-04-29T09:53:24.879Z,20.63
2019-04-29T09:54:24.869Z,20.69
2019-04-29T09:55:24.854Z,19.94
2019-04-29T09:56:24.835Z,20.23
2019-04-29T09:57:24.838Z,20.05
2019-04-29T09:58:24.846Z,19.17
2019-04-29T09:59:24.823Z,19.86
2019-04-29T10:00:24.823Z,20.64
2019-04-29T10:01:24.782Z,20.23
2019-04-29T10:02:26.234Z,19.87
2019-04-29T10:03:25.764Z,18.87
2019-04-29T10:04:24.750Z,18.10
2019-04-29T10:05:24.779Z,18.35
2019-04-29T10:06:24.731Z,18.94
2019-04-29T10:07:24.730Z,19.55
2019-04-29T10:08:24.713Z,20.05
2019-04-29T10:09:24.696Z,19.85
2019-04-29T10:10:24.708Z,19.65
2019-04-29T10:11:24.676Z,20.60
2019-04-29T10:12:24.678Z,20.38
2019-04-29T10:13:24.674Z,20.46
2019-04-29T10:14:24.665Z,20.46
2019-04-29T10:15:24.637Z,20.53
2019-04-29T10:16:24.633Z,20.35
2019-04-29T10:17:24.648Z,19.86
2019-04-29T10:18:25.062Z,18.89
2019-04-29T10:19:24.629Z,17.91
2019-04-29T10:20:24.578Z,17.71
2019-04-29T10:21:24.570Z,17.63
2019-04-29T10:22:24.568Z,17.71
2019-04-29T10:23:24.547Z,17.46
2019-04-29T10:24:24.572Z,17.24
2019-04-29T10:25:24.526Z,16.65
2019-04-29T10:26:24.514Z,16.30
2019-04-29T10:27:24.516Z,16.34
2019-04-29T10:28:24.497Z,15.91
2019-04-29T10:29:25.822Z,15.86
2019-04-29T10:30:26.811Z,16.10
2019-04-29T10:31:25.475Z,16.08
2019-04-29T10:32:24.462Z,16.33
2019-04-29T10:33:24.449Z,16.23
2019-04-29T10:34:27.054Z,16.44
2019-04-29T10:35:25.439Z,15.68
2019-04-29T10:36:26.148Z,15.16
2019-04-29T10:37:31.505Z,15.28
2019-04-29T10:38:25.448Z,15.15
2019-04-29T10:39:24.401Z,15.04
2019-04-29T10:40:24.365Z,14.49
2019-04-29T10:41:24.355Z,15.44
2019-04-29T10:42:24.402Z,16.33
2019-04-29T10:43:24.339Z,16.48
2019-04-29T10:44:24.322Z,16.42
2019-04-29T10:45:24.309Z,16.52
2019-04-29T10:46:24.315Z,16.52
2019-04-29T10:47:24.305Z,16.95
2019-04-29T10:48:24.289Z,16.87
2019-04-29T10:49:24.264Z,17.58
2019-04-29T10:50:24.253Z,17.43
2019-04-29T10:51:27.501Z,17.91
2019-04-29T10:52:24.260Z,17.84
2019-04-29T10:53:24.233Z,18.19
2019-04-29T10:54:24.215Z,18.39
2019-04-29T10:55:25.658Z,18.99
2019-04-29T10:56:25.189Z,19.28
2019-04-29T10:57:24.187Z,19.46
2019-04-29T10:58:30.155Z,19.97
2019-04-29T10:59:35.699Z,19.87
2019-04-29T11:00:25.157Z,19.58
2019-04-29T11:01:24.199Z,18.02
2019-04-29T11:02:24.132Z,17.27
2019-04-29T11:03:24.989Z,16.96
2019-04-29T11:04:24.130Z,16.51
2019-04-29T11:05:24.139Z,15.66
2019-04-29T11:06:24.097Z,15.68
2019-04-29T11:07:26.423Z,15.67
2019-04-29T11:08:24.075Z,15.40
2019-04-29T11:09:24.050Z,15.37
2019-04-29T11:10:25.545Z,15.46
2019-04-29T11:11:27.068Z,15.28
2019-04-29T11:12:24.021Z,15.23
2019-04-29T11:13:24.020Z,15.37
2019-04-29T11:14:24.804Z,15.53
2019-04-29T11:15:24.057Z,15.70
2019-04-29T11:16:27.684Z,15.64
2019-04-29T11:17:24.968Z,15.64
2019-04-29T11:18:25.113Z,15.62
2019-04-29T11:19:23.977Z,15.71
2019-04-29T11:20:23.937Z,15.77
2019-04-29T11:21:25.058Z,15.80
2019-04-29T11:22:23.981Z,15.81
2019-04-29T11:23:23.923Z,16.08
2019-04-29T11:24:23.891Z,15.99
2019-04-29T11:25:23.950Z,16.10
2019-04-29T11:26:23.882Z,16.08
2019-04-29T11:27:23.890Z,16.33
2019-04-29T11:28:23.860Z,16.62
2019-04-29T11:29:27.229Z,16.75
2019-04-29T11:30:23.831Z,16.33
2019-04-29T11:31:23.817Z,16.06
2019-04-29T11:32:24.921Z,15.96
2019-04-29T11:33:24.858Z,15.91
2019-04-29T11:34:23.781Z,15.60
2019-04-29T11:35:24.600Z,15.73
2019-04-29T11:36:23.772Z,15.77
2019-04-29T11:37:24.116Z,15.77
2019-04-29T11:38:23.784Z,15.46
2019-04-29T11:39:23.764Z,15.07
2019-04-29T11:40:26.013Z,15.18
2019-04-29T11:41:24.705Z,15.41
2019-04-29T11:42:23.698Z,15.38
2019-04-29T11:43:23.691Z,15.55
2019-04-29T11:44:26.442Z,15.62
2019-04-29T11:45:23.735Z,15.40
2019-04-29T11:46:23.709Z,15.41
2019-04-29T11:47:25.127Z,15.38
2019-04-29T11:48:23.637Z,15.37
2019-04-29T11:49:23.624Z,15.49
2019-04-29T11:50:26.798Z,15.37
2019-04-29T11:51:23.600Z,15.23
2019-04-29T11:52:27.690Z,14.79
2019-04-29T11:53:23.649Z,14.78
2019-04-29T11:54:23.582Z,14.64
2019-04-29T11:55:23.554Z,14.63
2019-04-29T11:56:23.550Z,14.63
2019-04-29T11:57:23.529Z,14.52
2019-04-29T11:58:23.541Z,14.49
2019-04-29T11:59:23.641Z,14.41
2019-04-29T12:00:23.497Z,14.41
2019-04-29T12:01:37.479Z,14.30
2019-04-29T12:02:44.217Z,14.36
2019-04-29T12:03:24.485Z,14.36
2019-04-29T12:04:23.459Z,14.38
2019-04-29T12:05:23.441Z,14.38
2019-04-29T12:06:23.437Z,14.24
2019-04-29T12:07:31.885Z,14.26
2019-04-29T12:08:24.470Z,14.31
2019-04-29T12:09:25.469Z,14.08
2019-04-29T12:10:24.383Z,13.88
2019-04-29T12:11:23.376Z,13.88
2019-04-29T12:12:23.368Z,13.91
2019-04-29T12:13:27.121Z,13.93
2019-04-29T12:14:23.352Z,13.65
2019-04-29T12:15:23.357Z,13.63
2019-04-29T12:16:24.613Z,13.69
2019-04-29T12:17:23.308Z,13.79
2019-04-29T12:18:23.298Z,13.63
2019-04-29T12:19:23.343Z,13.61
2019-04-29T12:20:23.274Z,13.44
2019-04-29T12:21:25.533Z,13.27
2019-04-29T12:22:30.338Z,13.43
2019-04-29T12:23:24.260Z,13.32
2019-04-29T12:24:23.238Z,13.41
2019-04-29T12:25:27.500Z,13.28
2019-04-29T12:26:24.247Z,13.41
2019-04-29T12:27:23.203Z,13.44
2019-04-29T12:28:23.224Z,13.53
2019-04-29T12:29:23.200Z,13.43
2019-04-29T12:30:23.189Z,13.38
2019-04-29T12:31:23.160Z,13.28
2019-04-29T12:32:24.910Z,13.28
2019-04-29T12:33:23.158Z,13.21
2019-04-29T12:34:23.134Z,13.09
2019-04-29T12:35:23.413Z,13.09
2019-04-29T12:36:23.141Z,13.09
2019-04-29T12:37:25.605Z,13.14
2019-04-29T12:38:23.095Z,13.01
2019-04-29T12:39:42.303Z,13.10
2019-04-29T12:40:24.053Z,13.04
2019-04-29T12:41:29.588Z,12.99
2019-04-29T12:42:24.056Z,13.03
2019-04-29T12:43:23.032Z,13.04
2019-04-29T12:44:34.675Z,12.96
2019-04-29T12:45:24.000Z,12.99
2019-04-29T12:46:22.990Z,13.01
2019-04-29T12:47:26.927Z,13.01
2019-04-29T12:48:24.801Z,13.07
2019-04-29T12:49:22.992Z,12.99
2019-04-29T12:50:23.175Z,12.96
2019-04-29T12:51:22.943Z,12.99
2019-04-29T12:52:22.967Z,12.96
2019-04-29T12:53:22.919Z,12.84
2019-04-29T12:54:22.931Z,12.92
2019-04-29T12:55:42.974Z,12.91
2019-04-29T12:56:26.078Z,12.95
2019-04-29T12:57:23.653Z,13.01
2019-04-29T12:58:24.214Z,13.07
2019-04-29T12:59:22.857Z,13.09
2019-04-29T13:00:22.882Z,13.10
2019-04-29T13:01:22.884Z,13.09
2019-04-29T13:02:24.322Z,13.04
2019-04-29T13:03:22.829Z,12.98
2019-04-29T13:04:22.860Z,12.96
2019-04-29T13:05:22.785Z,12.94